Time;durP1;ratioP1;P1;durP2;ratioP2;P2;SDS_P1;SDS_P2;PMS_P1;PMS_P2;Temp;Humidity;BMP_temperature;BMP_pressure;BME280_temperature;BME280_humidity;BME280_pressure;Samples;Min_cycle;Max_cycle;Signal;HPM_P1;HPM_P2
2023/12/20 00:01:41;;;;;;;10.40;8.25;;;;;;;;;;5077580;28;20020;-46
2023/12/20 00:04:06;;;;;;;11.57;8.93;;;;;;;;;;5084142;28;20036;-47
2023/12/20 00:06:31;;;;;;;11.00;9.85;;;;;;;;;;5084746;28;20036;-46
2023/12/20 00:08:57;;;;;;;10.77;9.10;;;;;;;;;;5080702;28;20039;-48
2023/12/20 00:11:23;;;;;;;10.93;8.35;;;;;;;;;;5077764;28;20048;-46
2023/12/20 00:13:49;;;;;;;11.27;9.45;;;;;;;;;;5080354;28;20082;-46
2023/12/20 00:16:14;;;;;;;12.15;8.95;;;;;;;;;;5081612;28;20604;-45
2023/12/20 00:18:39;;;;;;;11.52;7.70;;;;;;;;;;5077139;28;20044;-48
2023/12/20 00:21:05;;;;;;;15.25;10.30;;;;;;;;;;5077515;28;20020;-46
2023/12/20 00:23:30;;;;;;;10.48;8.25;;;;;;;;;;5079707;28;20040;-45
2023/12/20 00:25:56;;;;;;;11.77;9.50;;;;;;;;;;5084865;28;20028;-46
2023/12/20 00:28:21;;;;;;;8.93;7.55;;;;;;;;;;5077943;28;20064;-46
2023/12/20 00:30:47;;;;;;;9.70;7.32;;;;;;;;;;5077319;28;20032;-46
2023/12/20 00:33:12;;;;;;;10.30;8.23;;;;;;;;;;5077870;28;20060;-45
2023/12/20 00:35:38;;;;;;;9.95;7.57;;;;;;;;;;5077963;28;20039;-47
2023/12/20 00:38:05;;;;;;;10.45;6.65;;;;;;;;;;5077192;28;20036;-46
2023/12/20 00:40:30;;;;;;;9.82;7.00;;;;;;;;;;5076556;28;20024;-46
2023/12/20 00:42:55;;;;;;;9.65;6.47;;;;;;;;;;5077781;28;20475;-45
2023/12/20 00:45:21;;;;;;;10.23;6.45;;;;;;;;;;5078099;28;20029;-46
2023/12/20 00:47:46;;;;;;;9.55;6.97;;;;;;;;;;5075580;28;20433;-45
2023/12/20 00:50:11;;;;;;;11.73;7.55;;;;;;;;;;5077465;28;20028;-50
2023/12/20 00:52:37;;;;;;;9.38;6.03;;;;;;;;;;5076495;28;20125;-46
2023/12/20 00:55:03;;;;;;;9.60;6.95;;;;;;;;;;5081866;28;20552;-49
2023/12/20 00:57:29;;;;;;;8.52;6.72;;;;;;;;;;5079465;28;20046;-49
2023/12/20 00:59:54;;;;;;;10.27;7.28;;;;;;;;;;5074576;28;20086;-47
2023/12/20 01:02:20;;;;;;;8.27;6.13;;;;;;;;;;5077407;28;20029;-47
2023/12/20 01:04:45;;;;;;;5.82;4.07;;;;;;;;;;5076921;28;20032;-45
2023/12/20 01:07:10;;;;;;;5.82;4.47;;;;;;;;;;5083897;28;20058;-45
2023/12/20 01:09:36;;;;;;;5.70;4.25;;;;;;;;;;5079249;28;20494;-44
2023/12/20 01:12:01;;;;;;;5.82;4.13;;;;;;;;;;5075063;28;20387;-49
2023/12/20 01:14:26;;;;;;;5.60;3.90;;;;;;;;;;5074916;28;20739;-47
2023/12/20 01:16:52;;;;;;;4.97;2.80;;;;;;;;;;5077442;28;20537;-47
2023/12/20 01:19:17;;;;;;;5.45;3.85;;;;;;;;;;5082976;28;20032;-45
2023/12/20 01:21:43;;;;;;;3.75;3.20;;;;;;;;;;5075236;28;20025;-46
2023/12/20 01:24:09;;;;;;;6.32;3.38;;;;;;;;;;5075626;28;20059;-46
2023/12/20 01:26:34;;;;;;;4.65;3.30;;;;;;;;;;5077114;28;20031;-45
2023/12/20 01:28:59;;;;;;;3.08;2.03;;;;;;;;;;5073248;28;20042;-45
2023/12/20 01:31:27;;;;;;;4.72;2.85;;;;;;;;;;5076358;28;20021;-45
2023/12/20 01:33:52;;;;;;;5.43;3.03;;;;;;;;;;5073655;28;20141;-45
2023/12/20 01:36:18;;;;;;;3.78;2.72;;;;;;;;;;5090648;28;20051;-48
2023/12/20 01:38:43;;;;;;;3.17;2.25;;;;;;;;;;5075353;28;20068;-46
2023/12/20 01:41:09;;;;;;;4.90;2.80;;;;;;;;;;5074672;28;20045;-46
2023/12/20 01:43:34;;;;;;;3.90;3.55;;;;;;;;;;5074349;28;20453;-45
2023/12/20 01:46:00;;;;;;;4.63;2.90;;;;;;;;;;5075794;28;20035;-47
2023/12/20 01:48:27;;;;;;;3.78;2.63;;;;;;;;;;5073955;28;20402;-43
2023/12/20 01:50:54;;;;;;;3.95;3.50;;;;;;;;;;5075563;28;20448;-50
2023/12/20 01:53:23;;;;;;;4.47;3.03;;;;;;;;;;5074698;28;20106;-47
2023/12/20 01:55:50;;;;;;;4.28;2.25;;;;;;;;;;5057481;28;20090;-46
2023/12/20 01:58:16;;;;;;;4.22;2.35;;;;;;;;;;5078042;28;20047;-49
2023/12/20 02:00:42;;;;;;;4.10;3.63;;;;;;;;;;5085918;28;20467;-46
2023/12/20 02:03:08;;;;;;;4.22;2.55;;;;;;;;;;5075849;28;20383;-47
2023/12/20 02:05:35;;;;;;;2.58;1.40;;;;;;;;;;5075802;28;20442;-45
2023/12/20 02:08:00;;;;;;;2.67;1.75;;;;;;;;;;5074294;28;20047;-47
2023/12/20 02:10:27;;;;;;;2.85;2.03;;;;;;;;;;5076079;28;20123;-45
2023/12/20 02:12:52;;;;;;;3.78;1.65;;;;;;;;;;5078156;28;20063;-44
2023/12/20 02:15:18;;;;;;;1.90;1.77;;;;;;;;;;5074949;28;20028;-44
2023/12/20 02:17:44;;;;;;;3.38;2.33;;;;;;;;;;5074585;28;20035;-48
2023/12/20 02:20:09;;;;;;;3.55;2.67;;;;;;;;;;5082219;28;20032;-45
2023/12/20 02:22:35;;;;;;;3.20;1.80;;;;;;;;;;5075728;28;20025;-47
2023/12/20 02:25:00;;;;;;;3.83;2.47;;;;;;;;;;5086054;28;20594;-46
2023/12/20 02:27:27;;;;;;;2.80;2.13;;;;;;;;;;5072553;28;20036;-48
2023/12/20 02:29:53;;;;;;;3.33;2.45;;;;;;;;;;5075254;28;20075;-45
2023/12/20 02:32:18;;;;;;;3.22;2.03;;;;;;;;;;5077801;28;20093;-46
2023/12/20 02:34:44;;;;;;;3.35;2.85;;;;;;;;;;5073105;28;20037;-47
2023/12/20 02:37:09;;;;;;;2.78;1.88;;;;;;;;;;5081087;28;20143;-45
2023/12/20 02:39:35;;;;;;;4.40;1.65;;;;;;;;;;5075821;28;20044;-46
2023/12/20 02:42:00;;;;;;;3.20;1.90;;;;;;;;;;5074400;28;20031;-45
2023/12/20 02:44:25;;;;;;;3.53;1.95;;;;;;;;;;5072854;28;20403;-47
2023/12/20 02:46:51;;;;;;;3.97;1.90;;;;;;;;;;5075541;28;20044;-48
2023/12/20 02:49:16;;;;;;;2.75;2.35;;;;;;;;;;5075532;28;20043;-45
2023/12/20 02:51:42;;;;;;;3.88;2.67;;;;;;;;;;5073036;28;20020;-46
2023/12/20 02:54:07;;;;;;;3.15;1.90;;;;;;;;;;5079657;28;20058;-45
2023/12/20 02:56:33;;;;;;;2.88;2.53;;;;;;;;;;5079011;28;20016;-48
2023/12/20 02:58:58;;;;;;;3.78;2.00;;;;;;;;;;5072954;28;20120;-46
2023/12/20 03:01:24;;;;;;;2.72;1.80;;;;;;;;;;5070148;28;20024;-47
2023/12/20 03:03:49;;;;;;;3.90;2.05;;;;;;;;;;5074769;28;20047;-50
2023/12/20 03:06:18;;;;;;;3.38;1.88;;;;;;;;;;5076118;28;20025;-46
2023/12/20 03:08:44;;;;;;;;;;;;;;;;;;5079326;28;20039;-46
2023/12/20 03:11:10;;;;;;;2.78;2.38;;;;;;;;;;5081802;28;19913;-48
2023/12/20 03:13:35;;;;;;;2.42;2.22;;;;;;;;;;5081237;28;20086;-46
2023/12/20 03:16:00;;;;;;;3.65;2.80;;;;;;;;;;5080843;28;20036;-47
2023/12/20 03:18:27;;;;;;;3.38;2.22;;;;;;;;;;5080866;28;20549;-47
2023/12/20 03:20:53;;;;;;;4.15;2.40;;;;;;;;;;5095577;28;20476;-48
2023/12/20 03:23:18;;;;;;;2.42;1.92;;;;;;;;;;5077830;28;20044;-49
2023/12/20 03:25:44;;;;;;;3.75;2.47;;;;;;;;;;5094643;28;20387;-47
2023/12/20 03:28:09;;;;;;;2.85;1.98;;;;;;;;;;5082257;28;20043;-48
2023/12/20 03:30:34;;;;;;;3.67;3.10;;;;;;;;;;5081262;28;20052;-49
2023/12/20 03:33:00;;;;;;;3.17;2.13;;;;;;;;;;5080597;28;20557;-47
2023/12/20 03:35:25;;;;;;;2.53;1.98;;;;;;;;;;5081708;28;20023;-45
2023/12/20 03:37:51;;;;;;;3.30;2.55;;;;;;;;;;5079668;28;20024;-51
2023/12/20 03:40:16;;;;;;;3.47;3.17;;;;;;;;;;5084002;28;20032;-46
2023/12/20 03:42:41;;;;;;;2.45;2.13;;;;;;;;;;5079552;28;20031;-49
2023/12/20 03:45:07;;;;;;;3.08;2.47;;;;;;;;;;5081099;28;20093;-49
2023/12/20 03:47:33;;;;;;;2.63;2.25;;;;;;;;;;5094054;28;20032;-48
2023/12/20 03:49:58;;;;;;;2.85;2.65;;;;;;;;;;5081081;28;20060;-45
2023/12/20 03:52:23;;;;;;;2.72;1.90;;;;;;;;;;5079007;28;20078;-50
2023/12/20 03:54:49;;;;;;;3.38;2.67;;;;;;;;;;5079063;28;20033;-46
2023/12/20 03:57:14;;;;;;;3.75;2.60;;;;;;;;;;5079415;28;20047;-45
2023/12/20 03:59:40;;;;;;;3.08;2.03;;;;;;;;;;5080797;28;20052;-45
2023/12/20 04:02:06;;;;;;;2.92;2.17;;;;;;;;;;5079015;28;20803;-46
2023/12/20 04:04:31;;;;;;;2.58;2.10;;;;;;;;;;5071457;28;20052;-48
2023/12/20 04:06:56;;;;;;;2.35;1.85;;;;;;;;;;5079675;28;20033;-47
2023/12/20 04:09:22;;;;;;;3.10;2.25;;;;;;;;;;5080651;28;20040;-46
2023/12/20 04:11:47;;;;;;;3.00;2.58;;;;;;;;;;5078945;28;20039;-44
2023/12/20 04:14:12;;;;;;;4.82;2.35;;;;;;;;;;5080179;28;20115;-47
2023/12/20 04:16:39;;;;;;;2.42;1.98;;;;;;;;;;5080059;28;20024;-46
2023/12/20 04:19:04;;;;;;;3.00;1.67;;;;;;;;;;5084540;28;20584;-48
2023/12/20 04:21:30;;;;;;;3.95;2.03;;;;;;;;;;5078267;28;20024;-44
2023/12/20 04:23:55;;;;;;;2.75;1.65;;;;;;;;;;5076951;28;20044;-49
2023/12/20 04:26:21;;;;;;;2.50;1.48;;;;;;;;;;5076560;28;20031;-48
2023/12/20 04:28:46;;;;;;;2.15;1.75;;;;;;;;;;5078231;28;20514;-47
2023/12/20 04:31:12;;;;;;;3.40;1.45;;;;;;;;;;5058144;28;20028;-45
2023/12/20 04:33:37;;;;;;;2.50;1.83;;;;;;;;;;5074607;28;20040;-46
2023/12/20 04:36:04;;;;;;;3.47;1.60;;;;;;;;;;5075853;28;20389;-45
2023/12/20 04:38:29;;;;;;;2.30;2.00;;;;;;;;;;5083720;28;20044;-46
2023/12/20 04:40:55;;;;;;;3.28;2.25;;;;;;;;;;5076496;28;20045;-46
2023/12/20 04:43:20;;;;;;;2.72;2.13;;;;;;;;;;5077077;28;20040;-45
2023/12/20 04:45:45;;;;;;;3.80;1.63;;;;;;;;;;5089922;28;20024;-47
2023/12/20 04:48:12;;;;;;;2.03;1.38;;;;;;;;;;5078173;28;20398;-45
2023/12/20 04:50:37;;;;;;;2.10;1.20;;;;;;;;;;5075574;28;20454;-48
2023/12/20 04:53:02;;;;;;;2.30;1.30;;;;;;;;;;5073690;28;20036;-50
2023/12/20 04:55:28;;;;;;;3.15;1.88;;;;;;;;;;5069050;28;20040;-47
2023/12/20 04:57:54;;;;;;;2.95;1.88;;;;;;;;;;5096745;28;20021;-47
2023/12/20 05:00:20;;;;;;;2.10;1.60;;;;;;;;;;5073398;28;20029;-47
2023/12/20 05:02:45;;;;;;;2.67;1.67;;;;;;;;;;5078632;28;20039;-44
2023/12/20 05:05:10;;;;;;;2.70;1.85;;;;;;;;;;5076162;28;20021;-46
2023/12/20 05:07:36;;;;;;;1.85;1.42;;;;;;;;;;5076542;28;20037;-47
2023/12/20 05:10:04;;;;;;;2.17;1.27;;;;;;;;;;5074915;28;20060;-45
2023/12/20 05:12:29;;;;;;;1.80;1.30;;;;;;;;;;5078414;28;20040;-47
2023/12/20 05:14:55;;;;;;;1.75;1.17;;;;;;;;;;5074509;28;20502;-51
2023/12/20 05:17:20;;;;;;;2.42;0.98;;;;;;;;;;5077245;28;20125;-48
2023/12/20 05:19:45;;;;;;;2.30;1.35;;;;;;;;;;5075714;28;20043;-47
2023/12/20 05:22:11;;;;;;;1.73;1.63;;;;;;;;;;5076018;28;20032;-46
2023/12/20 05:24:36;;;;;;;1.98;1.30;;;;;;;;;;5077040;28;20859;-45
2023/12/20 05:27:02;;;;;;;1.30;1.02;;;;;;;;;;5083765;28;20028;-50
2023/12/20 05:29:27;;;;;;;1.60;1.30;;;;;;;;;;5074306;28;20093;-49
2023/12/20 05:31:53;;;;;;;1.33;1.00;;;;;;;;;;5076918;28;20389;-49
2023/12/20 05:34:19;;;;;;;0.98;0.88;;;;;;;;;;5074831;28;20510;-48
2023/12/20 05:36:44;;;;;;;2.08;1.98;;;;;;;;;;5074930;28;20027;-46
2023/12/20 05:39:09;;;;;;;1.20;0.68;;;;;;;;;;5076329;28;20066;-47
2023/12/20 05:41:35;;;;;;;2.33;2.10;;;;;;;;;;5076455;28;20032;-46
2023/12/20 05:44:00;;;;;;;1.88;1.23;;;;;;;;;;5070695;28;20187;-47
2023/12/20 05:46:26;;;;;;;1.13;1.02;;;;;;;;;;5073377;28;20043;-47
2023/12/20 05:48:51;;;;;;;1.08;1.00;;;;;;;;;;5075378;28;20035;-46
2023/12/20 05:51:17;;;;;;;1.60;0.43;;;;;;;;;;5074444;28;20060;-47
2023/12/20 05:53:44;;;;;;;1.55;0.60;;;;;;;;;;5072159;28;20040;-46
2023/12/20 05:56:09;;;;;;;1.38;1.27;;;;;;;;;;5086682;28;20029;-48
2023/12/20 05:58:34;;;;;;;1.00;0.57;;;;;;;;;;5074924;28;20032;-47
2023/12/20 06:01:00;;;;;;;1.05;1.05;;;;;;;;;;5079903;28;20027;-47
2023/12/20 06:03:25;;;;;;;0.73;0.60;;;;;;;;;;5073477;28;20045;-48
2023/12/20 06:05:51;;;;;;;0.93;0.75;;;;;;;;;;5069552;28;20021;-49
2023/12/20 06:08:16;;;;;;;0.60;0.40;;;;;;;;;;5072453;28;20533;-50
2023/12/20 06:10:41;;;;;;;1.67;0.35;;;;;;;;;;5076699;28;20032;-47
2023/12/20 06:13:07;;;;;;;1.05;0.40;;;;;;;;;;5074949;28;20043;-45
2023/12/20 06:15:33;;;;;;;0.60;0.30;;;;;;;;;;5088061;28;20820;-50
2023/12/20 06:17:58;;;;;;;2.25;1.55;;;;;;;;;;5073327;28;20036;-49
2023/12/20 06:20:24;;;;;;;1.50;0.70;;;;;;;;;;5073038;28;20448;-48
2023/12/20 06:22:50;;;;;;;0.90;0.43;;;;;;;;;;5070099;28;20025;-47
2023/12/20 06:25:16;;;;;;;1.00;0.50;;;;;;;;;;5064301;28;20050;-50
2023/12/20 06:27:41;;;;;;;0.60;0.50;;;;;;;;;;5081606;28;20024;-49
2023/12/20 06:30:09;;;;;;;0.65;0.43;;;;;;;;;;5077155;28;20096;-48
2023/12/20 06:32:35;;;;;;;2.05;0.63;;;;;;;;;;5072973;28;20036;-47
2023/12/20 06:35:01;;;;;;;1.23;1.08;;;;;;;;;;5072403;28;20123;-48
2023/12/20 06:37:26;;;;;;;0.70;0.17;;;;;;;;;;5074636;28;20063;-47
2023/12/20 06:39:51;;;;;;;0.95;0.95;;;;;;;;;;5073040;28;20157;-46
2023/12/20 06:42:17;;;;;;;0.80;0.40;;;;;;;;;;5071773;28;20024;-50
2023/12/20 06:44:42;;;;;;;0.75;0.30;;;;;;;;;;5069256;28;20051;-46
2023/12/20 06:47:08;;;;;;;0.68;0.68;;;;;;;;;;5077245;28;20058;-47
2023/12/20 06:49:33;;;;;;;1.95;0.65;;;;;;;;;;5073707;28;20502;-46
2023/12/20 06:51:58;;;;;;;2.15;1.35;;;;;;;;;;5073439;28;20465;-45
2023/12/20 06:54:24;;;;;;;0.60;0.30;;;;;;;;;;5074483;28;20036;-48
2023/12/20 06:56:49;;;;;;;1.13;0.35;;;;;;;;;;5076162;28;20040;-46
2023/12/20 06:59:15;;;;;;;1.27;0.68;;;;;;;;;;5072075;28;20128;-47
2023/12/20 07:01:41;;;;;;;1.05;0.88;;;;;;;;;;5075460;28;20020;-49
2023/12/20 07:04:06;;;;;;;1.23;0.32;;;;;;;;;;5072831;28;20044;-45
2023/12/20 07:06:32;;;;;;;1.38;1.27;;;;;;;;;;5070786;28;20063;-47
2023/12/20 07:08:57;;;;;;;0.93;0.35;;;;;;;;;;5073316;28;20398;-47
2023/12/20 07:11:23;;;;;;;0.40;0.30;;;;;;;;;;5072454;28;20031;-49
2023/12/20 07:13:49;;;;;;;1.70;0.82;;;;;;;;;;5075335;28;20044;-48
2023/12/20 07:16:14;;;;;;;3.67;0.95;;;;;;;;;;5073306;28;20031;-46
2023/12/20 07:18:40;;;;;;;2.78;1.70;;;;;;;;;;5074741;28;20575;-46
2023/12/20 07:21:07;;;;;;;5.47;1.77;;;;;;;;;;5054678;28;20115;-48
2023/12/20 07:23:33;;;;;;;2.70;1.95;;;;;;;;;;5066556;28;20036;-46
2023/12/20 07:25:58;;;;;;;2.38;1.50;;;;;;;;;;5066167;28;20028;-47
2023/12/20 07:28:24;;;;;;;1.75;1.65;;;;;;;;;;5071843;28;20043;-46
2023/12/20 07:30:50;;;;;;;2.53;0.90;;;;;;;;;;5072669;28;20024;-46
2023/12/20 07:33:15;;;;;;;0.75;0.60;;;;;;;;;;5066690;28;20129;-49
2023/12/20 07:35:41;;;;;;;1.63;1.52;;;;;;;;;;5072344;28;20021;-47
2023/12/20 07:38:06;;;;;;;3.55;1.00;;;;;;;;;;5069581;28;20043;-50
2023/12/20 07:40:31;;;;;;;2.97;0.82;;;;;;;;;;5068227;28;20029;-45
2023/12/20 07:42:58;;;;;;;2.60;1.10;;;;;;;;;;5068294;28;20032;-49
2023/12/20 07:45:23;;;;;;;3.78;1.80;;;;;;;;;;5083395;28;20028;-45
2023/12/20 07:47:50;;;;;;;3.20;1.52;;;;;;;;;;5072929;28;20032;-47
2023/12/20 07:50:15;;;;;;;4.13;1.48;;;;;;;;;;5064009;28;20665;-47
2023/12/20 07:52:41;;;;;;;3.22;1.58;;;;;;;;;;5049972;28;20109;-48
2023/12/20 07:55:07;;;;;;;1.88;1.00;;;;;;;;;;5071819;28;20048;-45
2023/12/20 07:57:32;;;;;;;1.25;0.80;;;;;;;;;;5079552;28;20062;-46
2023/12/20 07:59:57;;;;;;;1.08;0.82;;;;;;;;;;5077341;28;20033;-46
2023/12/20 08:02:23;;;;;;;1.38;0.77;;;;;;;;;;5078255;28;20067;-48
2023/12/20 08:04:48;;;;;;;1.30;1.20;;;;;;;;;;5076701;28;20048;-45
2023/12/20 08:07:14;;;;;;;2.03;0.90;;;;;;;;;;5091412;28;20024;-48
2023/12/20 08:09:39;;;;;;;1.52;0.60;;;;;;;;;;5077653;28;20036;-46
2023/12/20 08:12:05;;;;;;;0.82;0.57;;;;;;;;;;5093750;28;20489;-46
2023/12/20 08:14:31;;;;;;;0.65;0.65;;;;;;;;;;5075799;28;20047;-49
2023/12/20 08:16:56;;;;;;;1.10;1.00;;;;;;;;;;5077907;28;20027;-47
2023/12/20 08:19:22;;;;;;;0.85;0.85;;;;;;;;;;5076127;28;20448;-47
2023/12/20 08:21:47;;;;;;;0.95;0.95;;;;;;;;;;5076950;28;20402;-47
2023/12/20 08:24:13;;;;;;;1.23;1.23;;;;;;;;;;5074675;28;20058;-45
2023/12/20 08:26:38;;;;;;;1.42;1.17;;;;;;;;;;5083430;28;20024;-45
2023/12/20 08:29:04;;;;;;;1.13;0.75;;;;;;;;;;5077327;28;20040;-45
2023/12/20 08:31:29;;;;;;;1.55;0.57;;;;;;;;;;5077146;28;20039;-49
2023/12/20 08:33:54;;;;;;;0.85;0.85;;;;;;;;;;5076427;28;20044;-45
2023/12/20 08:36:23;;;;;;;0.60;0.60;;;;;;;;;;5082345;28;20099;-47
2023/12/20 08:38:48;;;;;;;1.35;0.43;;;;;;;;;;5080566;28;20406;-47
2023/12/20 08:41:14;;;;;;;1.27;0.50;;;;;;;;;;5075703;28;20027;-50
2023/12/20 08:43:42;;;;;;;0.73;0.50;;;;;;;;;;5076173;28;20094;-48
2023/12/20 08:46:09;;;;;;;0.55;0.45;;;;;;;;;;5073687;28;20521;-47
2023/12/20 08:48:35;;;;;;;1.23;0.68;;;;;;;;;;5074114;28;20029;-48
2023/12/20 08:51:00;;;;;;;1.00;0.82;;;;;;;;;;5076493;28;20055;-46
2023/12/20 08:53:26;;;;;;;2.33;0.82;;;;;;;;;;5075049;28;20111;-49
2023/12/20 08:55:53;;;;;;;0.70;0.22;;;;;;;;;;5076525;28;20478;-45
2023/12/20 08:58:18;;;;;;;2.35;2.10;;;;;;;;;;5077538;28;20114;-47
2023/12/20 09:00:45;;;;;;;0.98;0.50;;;;;;;;;;5089521;28;20021;-45
2023/12/20 09:03:10;;;;;;;0.90;0.68;;;;;;;;;;5072011;28;20070;-45
2023/12/20 09:05:35;;;;;;;0.32;0.25;;;;;;;;;;5080614;28;20028;-49
2023/12/20 09:08:02;;;;;;;1.30;1.25;;;;;;;;;;5078931;28;20038;-50
2023/12/20 09:10:27;;;;;;;0.60;0.50;;;;;;;;;;5076371;28;20056;-46
2023/12/20 09:12:57;;;;;;;1.13;0.47;;;;;;;;;;5076791;28;20028;-48
2023/12/20 09:15:26;;;;;;;0.60;0.60;;;;;;;;;;5077472;28;20025;-49
2023/12/20 09:17:52;;;;;;;1.73;0.85;;;;;;;;;;5081380;28;20056;-46
2023/12/20 09:20:17;;;;;;;1.05;0.60;;;;;;;;;;5087510;28;20024;-49
2023/12/20 09:22:43;;;;;;;0.57;0.40;;;;;;;;;;5073212;28;20115;-44
2023/12/20 09:25:10;;;;;;;0.70;0.40;;;;;;;;;;5076106;28;20028;-47
2023/12/20 09:27:36;;;;;;;6.82;1.30;;;;;;;;;;5076088;28;20032;-47
2023/12/20 09:30:02;;;;;;;2.35;1.10;;;;;;;;;;5076562;28;20037;-48
2023/12/20 09:32:29;;;;;;;0.73;0.73;;;;;;;;;;5075989;28;20115;-45
2023/12/20 09:34:55;;;;;;;1.35;0.75;;;;;;;;;;5075659;28;20084;-47
2023/12/20 09:37:20;;;;;;;1.00;0.30;;;;;;;;;;5075494;28;20024;-46
2023/12/20 09:39:45;;;;;;;0.70;0.70;;;;;;;;;;5076264;28;20041;-45
2023/12/20 09:42:15;;;;;;;1.35;0.73;;;;;;;;;;5075121;28;20060;-47
2023/12/20 09:44:42;;;;;;;0.82;0.50;;;;;;;;;;5075728;28;20440;-46
2023/12/20 09:47:08;;;;;;;0.70;0.47;;;;;;;;;;5075132;28;20037;-44
2023/12/20 09:49:34;;;;;;;2.15;0.55;;;;;;;;;;5074943;28;20090;-44
2023/12/20 09:52:00;;;;;;;1.80;1.00;;;;;;;;;;5073259;28;20028;-49
2023/12/20 09:54:28;;;;;;;2.17;1.17;;;;;;;;;;5076144;28;20033;-46
2023/12/20 09:56:53;;;;;;;1.58;0.60;;;;;;;;;;5076831;28;20031;-45
2023/12/20 09:59:19;;;;;;;2.22;2.13;;;;;;;;;;5075425;28;20041;-47
2023/12/20 10:01:45;;;;;;;0.55;0.55;;;;;;;;;;5073857;28;20024;-45
2023/12/20 10:04:12;;;;;;;2.03;0.80;;;;;;;;;;5074963;28;20048;-47
2023/12/20 10:06:39;;;;;;;1.08;0.90;;;;;;;;;;5074932;28;20020;-45
2023/12/20 10:09:05;;;;;;;2.65;1.00;;;;;;;;;;5075422;28;20037;-48
2023/12/20 10:11:31;;;;;;;4.65;1.25;;;;;;;;;;5074104;28;20020;-45
2023/12/20 10:14:02;;;;;;;1.30;0.60;;;;;;;;;;5074047;28;20479;-48
2023/12/20 10:16:28;;;;;;;1.42;1.10;;;;;;;;;;5073341;28;20024;-47
2023/12/20 10:18:54;;;;;;;0.98;0.82;;;;;;;;;;5073971;28;20043;-48
2023/12/20 10:21:20;;;;;;;1.95;0.60;;;;;;;;;;5073125;28;20017;-47
2023/12/20 10:23:46;;;;;;;1.20;0.77;;;;;;;;;;5077639;28;20045;-44
2023/12/20 10:26:22;;;;;;;1.60;0.95;;;;;;;;;;5071852;28;20092;-46
2023/12/20 10:28:55;;;;;;;1.88;0.82;;;;;;;;;;5075907;28;20094;-48
2023/12/20 10:31:28;;;;;;;1.52;0.93;;;;;;;;;;5067182;28;20028;-47
2023/12/20 10:33:59;;;;;;;1.42;0.55;;;;;;;;;;5072535;28;20036;-46
2023/12/20 10:36:34;;;;;;;2.20;1.08;;;;;;;;;;5074125;28;20052;-46
2023/12/20 10:39:01;;;;;;;0.80;0.57;;;;;;;;;;5073247;28;20498;-47
2023/12/20 10:41:27;;;;;;;2.50;0.70;;;;;;;;;;5068174;28;20066;-45
2023/12/20 10:44:01;;;;;;;1.10;0.68;;;;;;;;;;5083907;28;20045;-45
2023/12/20 10:46:28;;;;;;;1.83;1.23;;;;;;;;;;5073713;28;20012;-46
2023/12/20 10:48:54;;;;;;;1.73;1.30;;;;;;;;;;5074507;28;20060;-45
2023/12/20 10:51:20;;;;;;;1.70;0.93;;;;;;;;;;5077090;28;20028;-45
2023/12/20 10:53:48;;;;;;;1.38;0.88;;;;;;;;;;5072237;28;20100;-47
2023/12/20 10:56:17;;;;;;;0.73;0.73;;;;;;;;;;5072754;28;20123;-47
2023/12/20 10:58:43;;;;;;;1.45;0.75;;;;;;;;;;5070148;28;20101;-48
2023/12/20 11:01:10;;;;;;;1.17;0.65;;;;;;;;;;5075206;28;20024;-47
2023/12/20 11:03:39;;;;;;;2.08;0.98;;;;;;;;;;5072146;28;20580;-45
2023/12/20 11:06:31;;;;;;;0.93;0.50;;;;;;;;;;5065112;28;20115;-47
2023/12/20 11:09:13;;;;;;;2.00;1.90;;;;;;;;;;5067435;28;20033;-45
2023/12/20 11:11:39;;;;;;;0.85;0.43;;;;;;;;;;5071502;28;20043;-45
2023/12/20 11:14:11;;;;;;;0.75;0.57;;;;;;;;;;5068341;28;20048;-47
2023/12/20 11:16:37;;;;;;;0.90;0.38;;;;;;;;;;5074795;28;20107;-49
2023/12/20 11:19:06;;;;;;;1.73;1.40;;;;;;;;;;5071156;28;20494;-48
2023/12/20 11:21:32;;;;;;;0.52;0.45;;;;;;;;;;5076168;28;20033;-47
2023/12/20 11:23:57;;;;;;;0.70;0.60;;;;;;;;;;5079690;28;20457;-45
2023/12/20 11:26:30;;;;;;;1.42;1.33;;;;;;;;;;5075033;28;20501;-50
2023/12/20 11:29:30;;;;;;;0.73;0.73;;;;;;;;;;5076137;28;20036;-48
2023/12/20 11:31:56;;;;;;;3.72;1.45;;;;;;;;;;5070188;28;20108;-46
2023/12/20 11:34:21;;;;;;;1.13;0.95;;;;;;;;;;5076693;28;20060;-50
2023/12/20 11:36:47;;;;;;;2.10;0.80;;;;;;;;;;5076606;28;20516;-47
2023/12/20 11:39:20;;;;;;;1.55;0.70;;;;;;;;;;5077195;28;20045;-46
2023/12/20 11:41:46;;;;;;;1.25;1.15;;;;;;;;;;5076557;28;20024;-50
2023/12/20 11:44:11;;;;;;;1.10;0.68;;;;;;;;;;5078196;28;20426;-45
2023/12/20 11:46:37;;;;;;;0.73;0.60;;;;;;;;;;5093066;28;20104;-49
2023/12/20 11:49:03;;;;;;;1.08;0.65;;;;;;;;;;5074633;28;20090;-46
2023/12/20 11:51:28;;;;;;;1.50;0.65;;;;;;;;;;5075167;28;20056;-49
2023/12/20 11:53:53;;;;;;;0.55;0.50;;;;;;;;;;5093294;28;20045;-49
2023/12/20 11:56:19;;;;;;;1.10;0.43;;;;;;;;;;5074163;28;20048;-48
2023/12/20 11:58:44;;;;;;;2.88;0.70;;;;;;;;;;5076999;28;20033;-49
2023/12/20 12:01:10;;;;;;;1.33;0.82;;;;;;;;;;5070986;28;20578;-49
2023/12/20 12:03:36;;;;;;;1.33;0.60;;;;;;;;;;5078296;28;20052;-48
2023/12/20 12:06:04;;;;;;;3.83;1.25;;;;;;;;;;5074987;28;20032;-50
2023/12/20 12:08:29;;;;;;;0.55;0.40;;;;;;;;;;5073811;28;20106;-50
2023/12/20 12:10:55;;;;;;;1.27;0.57;;;;;;;;;;5068405;28;20029;-45
2023/12/20 12:13:20;;;;;;;1.13;0.98;;;;;;;;;;5077833;28;20041;-52
2023/12/20 12:15:46;;;;;;;1.77;0.85;;;;;;;;;;5070086;28;20852;-50
2023/12/20 12:18:16;;;;;;;1.55;1.45;;;;;;;;;;5080410;28;20036;-48
2023/12/20 12:20:41;;;;;;;0.98;0.85;;;;;;;;;;5070873;28;20104;-48
2023/12/20 12:23:07;;;;;;;2.10;0.75;;;;;;;;;;5083459;28;20083;-46
2023/12/20 12:25:35;;;;;;;1.10;0.98;;;;;;;;;;5080018;28;20024;-46
2023/12/20 12:28:00;;;;;;;1.40;0.32;;;;;;;;;;5067267;28;20125;-46
2023/12/20 12:30:26;;;;;;;1.95;1.00;;;;;;;;;;5075185;28;20775;-48
2023/12/20 12:32:52;;;;;;;0.93;0.55;;;;;;;;;;5077832;28;20032;-45
2023/12/20 12:35:19;;;;;;;0.98;0.98;;;;;;;;;;5076469;28;20111;-49
2023/12/20 12:37:45;;;;;;;1.65;1.10;;;;;;;;;;5073178;28;20031;-45
2023/12/20 12:40:13;;;;;;;1.13;1.02;;;;;;;;;;5068181;28;20067;-47
2023/12/20 12:42:38;;;;;;;0.85;0.85;;;;;;;;;;5073559;28;20024;-46
2023/12/20 12:45:04;;;;;;;0.60;0.30;;;;;;;;;;5069691;28;20051;-44
2023/12/20 12:47:30;;;;;;;0.50;0.38;;;;;;;;;;5073280;28;20028;-45
2023/12/20 12:49:56;;;;;;;0.80;0.75;;;;;;;;;;5073883;28;20549;-47
2023/12/20 12:52:21;;;;;;;0.68;0.60;;;;;;;;;;5076821;28;20133;-48
2023/12/20 12:54:47;;;;;;;1.05;0.73;;;;;;;;;;5070917;28;20101;-48
2023/12/20 12:57:14;;;;;;;0.90;0.68;;;;;;;;;;5075393;28;20037;-48
2023/12/20 12:59:40;;;;;;;1.70;0.70;;;;;;;;;;5077541;28;20089;-46
2023/12/20 13:02:05;;;;;;;0.88;0.73;;;;;;;;;;5076198;28;20028;-49
2023/12/20 13:04:31;;;;;;;1.13;0.77;;;;;;;;;;5092712;28;20048;-47
2023/12/20 13:06:57;;;;;;;1.85;1.27;;;;;;;;;;5075259;28;20024;-47
2023/12/20 13:09:22;;;;;;;1.42;0.93;;;;;;;;;;5074228;28;20040;-46
2023/12/20 13:11:48;;;;;;;1.08;0.60;;;;;;;;;;5076105;28;20020;-46
2023/12/20 13:14:15;;;;;;;0.60;0.35;;;;;;;;;;5073521;28;20028;-51
2023/12/20 13:16:41;;;;;;;1.92;0.93;;;;;;;;;;5076941;28;20031;-48
2023/12/20 13:19:07;;;;;;;1.27;0.63;;;;;;;;;;5081529;28;20089;-47
2023/12/20 13:21:32;;;;;;;0.85;0.57;;;;;;;;;;5076139;28;20817;-47
2023/12/20 13:23:58;;;;;;;1.25;1.15;;;;;;;;;;5083901;28;20044;-47
2023/12/20 13:26:23;;;;;;;1.25;0.45;;;;;;;;;;5074984;28;20056;-47
2023/12/20 13:28:49;;;;;;;3.22;3.13;;;;;;;;;;5074354;28;20387;-48
2023/12/20 13:31:14;;;;;;;1.10;0.52;;;;;;;;;;5075781;28;20482;-46
2023/12/20 13:33:40;;;;;;;0.75;0.65;;;;;;;;;;5076471;28;20044;-48
2023/12/20 13:36:06;;;;;;;1.60;0.88;;;;;;;;;;5077199;28;20021;-49
2023/12/20 13:38:31;;;;;;;0.60;0.35;;;;;;;;;;5074559;28;20044;-48
2023/12/20 13:40:58;;;;;;;1.20;0.47;;;;;;;;;;5073905;28;20021;-46
2023/12/20 13:43:24;;;;;;;1.23;0.50;;;;;;;;;;5072463;28;20043;-48
2023/12/20 13:45:50;;;;;;;1.20;1.02;;;;;;;;;;5071442;28;20036;-47
2023/12/20 13:48:15;;;;;;;0.77;0.57;;;;;;;;;;5085126;28;20102;-48
2023/12/20 13:50:41;;;;;;;1.02;0.40;;;;;;;;;;5075678;28;20072;-48
2023/12/20 13:53:06;;;;;;;1.70;0.77;;;;;;;;;;5072307;28;20040;-46
2023/12/20 13:55:32;;;;;;;3.33;0.68;;;;;;;;;;5074395;28;20044;-49
2023/12/20 13:57:57;;;;;;;0.88;0.80;;;;;;;;;;5074486;28;20052;-46
2023/12/20 14:00:23;;;;;;;2.58;1.67;;;;;;;;;;5076208;28;20032;-48
2023/12/20 14:02:49;;;;;;;1.15;1.05;;;;;;;;;;5081835;28;20032;-47
2023/12/20 14:05:17;;;;;;;1.38;0.30;;;;;;;;;;5075522;28;20071;-48
2023/12/20 14:07:46;;;;;;;1.38;0.55;;;;;;;;;;5075556;28;20039;-45
2023/12/20 14:10:13;;;;;;;1.25;1.10;;;;;;;;;;5074566;28;20043;-47
2023/12/20 14:12:39;;;;;;;0.98;0.82;;;;;;;;;;5080579;28;20031;-48
2023/12/20 14:15:09;;;;;;;0.85;0.55;;;;;;;;;;5070831;28;20398;-50
2023/12/20 14:17:34;;;;;;;1.00;0.70;;;;;;;;;;5079478;28;20056;-48
2023/12/20 14:20:00;;;;;;;1.98;0.93;;;;;;;;;;5075044;28;20066;-50
2023/12/20 14:22:25;;;;;;;1.05;0.65;;;;;;;;;;5076434;28;20039;-47
2023/12/20 14:24:51;;;;;;;2.58;0.70;;;;;;;;;;5056513;28;20074;-47
2023/12/20 14:27:16;;;;;;;1.15;0.65;;;;;;;;;;5072689;28;20032;-50
2023/12/20 14:29:42;;;;;;;1.20;0.60;;;;;;;;;;5071846;28;20417;-49
2023/12/20 14:32:07;;;;;;;1.02;0.60;;;;;;;;;;5074924;28;20044;-47
2023/12/20 14:34:32;;;;;;;1.77;1.35;;;;;;;;;;5074850;28;20029;-49
2023/12/20 14:36:58;;;;;;;2.05;0.93;;;;;;;;;;5057375;28;20038;-47